createdAt,value
2023-02-14T00:01:53.024Z,100.00
2023-02-14T00:04:23.675Z,100.00
2023-02-14T00:06:51.338Z,100.00
2023-02-14T00:09:20.808Z,100.00
2023-02-14T00:11:48.670Z,100.00
2023-02-14T00:14:35.237Z,100.00
2023-02-14T00:17:02.901Z,100.00
2023-02-14T00:19:34.633Z,100.00
2023-02-14T00:22:02.394Z,100.00
2023-02-14T00:24:30.256Z,100.00
2023-02-14T00:26:58.699Z,100.00
2023-02-14T00:29:28.836Z,100.00
2023-02-14T00:31:56.754Z,100.00
2023-02-14T00:34:25.984Z,100.00
2023-02-14T00:36:55.660Z,100.00
2023-02-14T00:39:25.036Z,100.00
2023-02-14T00:41:52.857Z,100.00
2023-02-14T00:44:20.538Z,100.00
2023-02-14T00:46:48.991Z,100.00
2023-02-14T00:49:17.618Z,100.00
2023-02-14T00:51:46.242Z,100.00
2023-02-14T00:54:15.515Z,100.00
2023-02-14T00:56:43.168Z,100.00
2023-02-14T00:59:11.101Z,100.00
2023-02-14T01:01:38.850Z,100.00
2023-02-14T01:04:07.664Z,100.00
2023-02-14T01:06:36.184Z,100.00
2023-02-14T01:09:04.838Z,100.00
2023-02-14T01:11:35.273Z,100.00
2023-02-14T01:14:03.106Z,100.00
2023-02-14T01:16:31.262Z,100.00
2023-02-14T01:19:01.641Z,100.00
2023-02-14T01:21:32.855Z,100.00
2023-02-14T01:24:04.173Z,100.00
2023-02-14T01:26:32.581Z,100.00
2023-02-14T01:29:04.085Z,100.00
2023-02-14T01:31:33.397Z,100.00
2023-02-14T01:34:02.555Z,100.00
2023-02-14T01:36:32.606Z,100.00
2023-02-14T01:39:04.393Z,100.00
2023-02-14T01:41:37.781Z,100.00
2023-02-14T01:44:09.662Z,100.00
2023-02-14T01:46:39.603Z,100.00
2023-02-14T01:49:14.203Z,100.00
2023-02-14T01:51:46.668Z,100.00
2023-02-14T01:54:16.686Z,100.00
2023-02-14T01:56:49.357Z,100.00
2023-02-14T01:59:22.664Z,100.00
2023-02-14T02:01:56.664Z,100.00
2023-02-14T02:04:28.251Z,100.00
2023-02-14T02:07:00.701Z,100.00
2023-02-14T02:09:38.333Z,100.00
2023-02-14T02:12:06.018Z,100.00
2023-02-14T02:14:36.067Z,100.00
2023-02-14T02:17:23.644Z,100.00
2023-02-14T02:20:27.028Z,100.00
2023-02-14T02:23:31.652Z,100.00
2023-02-14T02:26:37.945Z,100.00
2023-02-14T02:30:13.531Z,100.00
2023-02-14T02:33:03.540Z,100.00
2023-02-14T02:35:53.434Z,100.00
2023-02-14T02:38:45.066Z,100.00
2023-02-14T02:41:28.849Z,100.00
2023-02-14T02:44:10.332Z,100.00
2023-02-14T02:46:50.707Z,100.00
2023-02-14T02:49:49.375Z,100.00
2023-02-14T02:52:41.575Z,100.00
2023-02-14T02:55:14.700Z,100.00
2023-02-14T02:57:48.592Z,100.00
2023-02-14T03:00:19.676Z,100.00
2023-02-14T03:03:09.451Z,100.00
2023-02-14T03:05:38.675Z,100.00
2023-02-14T03:08:10.355Z,100.00
2023-02-14T03:10:40.659Z,100.00
2023-02-14T03:13:26.612Z,100.00
2023-02-14T03:16:09.632Z,100.00
2023-02-14T03:21:48.152Z,100.00
2023-02-14T03:24:28.622Z,100.00
2023-02-14T03:27:04.760Z,100.00
2023-02-14T03:29:49.634Z,100.00
2023-02-14T03:32:28.765Z,100.00
2023-02-14T03:35:05.560Z,100.00
2023-02-14T03:37:46.353Z,100.00
2023-02-14T03:40:22.627Z,100.00
2023-02-14T03:42:55.774Z,100.00
2023-02-14T03:45:30.829Z,100.00
2023-02-14T03:48:02.917Z,100.00
2023-02-14T03:50:33.795Z,100.00
2023-02-14T03:53:04.591Z,100.00
2023-02-14T03:55:40.621Z,100.00
2023-02-14T03:58:16.360Z,100.00
2023-02-14T04:00:49.691Z,100.00
2023-02-14T04:03:22.336Z,100.00
2023-02-14T04:05:52.678Z,100.00
2023-02-14T04:08:25.121Z,100.00
2023-02-14T04:10:58.954Z,100.00
2023-02-14T04:13:27.251Z,100.00
2023-02-14T04:15:55.540Z,100.00
2023-02-14T04:18:43.597Z,100.00
2023-02-14T04:21:12.094Z,100.00
2023-02-14T04:23:41.567Z,100.00
2023-02-14T04:26:12.728Z,100.00
2023-02-14T04:28:40.998Z,100.00
2023-02-14T04:31:12.796Z,100.00
2023-02-14T04:33:41.603Z,100.00
2023-02-14T04:36:09.762Z,100.00
2023-02-14T04:38:37.466Z,100.00
2023-02-14T04:41:05.481Z,100.00
2023-02-14T04:43:36.600Z,100.00
2023-02-14T04:46:04.659Z,100.00
2023-02-14T04:48:33.034Z,100.00
2023-02-14T04:51:01.870Z,100.00
2023-02-14T04:53:33.610Z,100.00
2023-02-14T04:56:02.086Z,100.00
2023-02-14T04:58:31.806Z,100.00
2023-02-14T05:01:02.107Z,100.00
2023-02-14T05:03:29.954Z,100.00
2023-02-14T05:05:57.587Z,100.00
2023-02-14T05:08:25.313Z,100.00
2023-02-14T05:10:55.868Z,100.00
2023-02-14T05:13:24.087Z,100.00
2023-02-14T05:15:51.691Z,100.00
2023-02-14T05:18:21.189Z,100.00
2023-02-14T05:20:50.584Z,100.00
2023-02-14T05:23:19.696Z,100.00
2023-02-14T05:25:49.027Z,100.00
2023-02-14T05:28:16.850Z,100.00
2023-02-14T05:30:45.354Z,100.00
2023-02-14T05:33:18.584Z,100.00
2023-02-14T05:35:47.618Z,100.00
2023-02-14T05:38:15.713Z,100.00
2023-02-14T05:40:44.331Z,100.00
2023-02-14T05:43:12.711Z,100.00
2023-02-14T05:45:40.296Z,100.00
2023-02-14T05:48:08.679Z,100.00
2023-02-14T05:50:36.360Z,100.00
2023-02-14T05:53:05.607Z,100.00
2023-02-14T05:55:35.223Z,100.00
2023-02-14T05:58:03.256Z,100.00
2023-02-14T06:00:33.580Z,100.00
2023-02-14T06:03:02.024Z,100.00
2023-02-14T06:05:29.716Z,100.00
2023-02-14T06:07:57.300Z,100.00
2023-02-14T06:10:27.739Z,100.00
2023-02-14T06:13:00.150Z,100.00
2023-02-14T06:15:28.228Z,100.00
2023-02-14T06:17:58.706Z,100.00
2023-02-14T06:20:27.447Z,100.00
2023-02-14T06:22:55.611Z,100.00
2023-02-14T06:25:24.180Z,100.00
2023-02-14T06:27:57.077Z,100.00
2023-02-14T06:30:24.948Z,100.00
2023-02-14T06:32:55.916Z,100.00
2023-02-14T06:35:23.938Z,100.00
2023-02-14T06:37:51.629Z,100.00
2023-02-14T06:40:21.105Z,100.00
2023-02-14T06:42:49.273Z,100.00
2023-02-14T06:45:18.397Z,100.00
2023-02-14T06:47:51.267Z,100.00
2023-02-14T06:50:22.754Z,100.00
2023-02-14T06:52:54.958Z,100.00
2023-02-14T06:55:22.638Z,100.00
2023-02-14T06:57:52.162Z,100.00
2023-02-14T07:00:22.480Z,100.00
2023-02-14T07:02:50.746Z,100.00
2023-02-14T07:05:19.303Z,100.00
2023-02-14T07:07:47.453Z,100.00
2023-02-14T07:10:17.380Z,100.00
2023-02-14T07:12:45.593Z,100.00
2023-02-14T07:15:15.723Z,100.00
2023-02-14T07:17:48.713Z,100.00
2023-02-14T07:20:18.263Z,100.00
2023-02-14T07:22:46.274Z,100.00
2023-02-14T07:25:14.249Z,100.00
2023-02-14T07:27:41.934Z,100.00
2023-02-14T07:30:13.596Z,100.00
2023-02-14T07:32:43.621Z,100.00
2023-02-14T07:35:14.397Z,100.00
2023-02-14T07:37:43.041Z,100.00
2023-02-14T07:40:14.963Z,100.00
2023-02-14T07:42:43.608Z,100.00
2023-02-14T07:45:21.252Z,100.00
2023-02-14T07:47:52.628Z,100.00
2023-02-14T07:50:20.907Z,100.00
2023-02-14T07:52:49.427Z,100.00
2023-02-14T07:55:17.370Z,100.00
2023-02-14T07:58:09.580Z,100.00
2023-02-14T08:00:38.142Z,100.00
2023-02-14T08:03:07.310Z,100.00
2023-02-14T08:05:39.699Z,100.00
2023-02-14T08:08:08.304Z,100.00
2023-02-14T08:10:36.126Z,100.00
2023-02-14T08:13:03.899Z,100.00
2023-02-14T08:15:51.100Z,100.00
2023-02-14T08:18:22.996Z,100.00
2023-02-14T08:20:51.796Z,100.00
2023-02-14T08:23:20.816Z,100.00
2023-02-14T08:25:49.826Z,100.00
2023-02-14T08:28:17.983Z,100.00
2023-02-14T08:30:47.563Z,100.00
2023-02-14T08:33:15.222Z,100.00
2023-02-14T08:35:47.053Z,100.00
2023-02-14T08:38:17.981Z,100.00
2023-02-14T08:40:46.042Z,100.00
2023-02-14T08:43:14.715Z,100.00
2023-02-14T08:45:43.601Z,100.00
2023-02-14T08:48:13.686Z,100.00
2023-02-14T08:50:42.176Z,100.00
2023-02-14T08:53:13.644Z,100.00
2023-02-14T08:55:41.580Z,100.00
2023-02-14T08:58:10.156Z,100.00
2023-02-14T09:00:38.655Z,100.00
2023-02-14T09:03:06.391Z,100.00
2023-02-14T09:05:36.606Z,100.00
2023-02-14T09:08:04.666Z,100.00
2023-02-14T09:10:33.680Z,100.00
2023-02-14T09:13:02.643Z,100.00
2023-02-14T09:15:30.361Z,100.00
2023-02-14T09:17:58.068Z,100.00
2023-02-14T09:20:26.071Z,100.00
2023-02-14T09:22:56.524Z,100.00
2023-02-14T09:25:24.307Z,100.00
2023-02-14T09:27:53.514Z,100.00
2023-02-14T09:30:22.216Z,100.00
2023-02-14T09:32:52.440Z,100.00
2023-02-14T09:35:37.932Z,100.00
2023-02-14T09:38:05.701Z,100.00
2023-02-14T09:40:34.580Z,100.00
2023-02-14T09:43:11.793Z,100.00
2023-02-14T09:45:41.031Z,100.00
2023-02-14T09:48:19.579Z,100.00
2023-02-14T09:50:50.741Z,100.00
2023-02-14T09:53:24.561Z,100.00
2023-02-14T09:55:58.152Z,100.00
2023-02-14T09:58:33.306Z,100.00
2023-02-14T10:01:07.780Z,100.00
2023-02-14T10:03:52.589Z,100.00
2023-02-14T10:06:41.609Z,100.00
2023-02-14T10:09:22.888Z,100.00
2023-02-14T10:11:51.601Z,100.00
2023-02-14T10:14:24.296Z,100.00
2023-02-14T10:16:56.752Z,100.00
2023-02-14T10:19:28.369Z,100.00
2023-02-14T10:22:02.661Z,100.00
2023-02-14T10:25:01.101Z,100.00
2023-02-14T10:27:34.712Z,100.00
2023-02-14T10:30:13.717Z,100.00
2023-02-14T10:32:46.794Z,100.00
2023-02-14T10:35:42.798Z,100.00
2023-02-14T10:38:21.505Z,100.00
2023-02-14T10:41:36.433Z,100.00
2023-02-14T10:44:27.608Z,100.00
2023-02-14T10:47:06.745Z,100.00
2023-02-14T10:49:45.637Z,99.06
2023-02-14T10:52:22.913Z,97.66
2023-02-14T10:54:55.322Z,97.43
2023-02-14T10:57:28.828Z,96.52
2023-02-14T11:00:02.064Z,95.40
2023-02-14T11:02:35.254Z,94.81
2023-02-14T11:05:05.624Z,95.99
2023-02-14T11:07:36.634Z,96.31
2023-02-14T11:10:13.696Z,96.12
2023-02-14T11:12:42.473Z,95.13
2023-02-14T11:15:22.883Z,96.20
2023-02-14T11:18:09.841Z,96.02
2023-02-14T11:20:39.201Z,96.16
2023-02-14T11:23:20.621Z,94.43
2023-02-14T11:25:55.476Z,93.91
2023-02-14T11:28:23.667Z,93.39
2023-02-14T11:30:52.887Z,93.46
2023-02-14T11:33:34.631Z,93.56
2023-02-14T11:36:08.672Z,92.83
2023-02-14T11:38:38.382Z,92.26
2023-02-14T11:41:08.662Z,92.22
2023-02-14T11:43:38.298Z,92.14
2023-02-14T11:46:14.668Z,91.42
2023-02-14T11:48:58.015Z,91.07
2023-02-14T11:51:36.592Z,90.05
2023-02-14T11:54:06.497Z,89.50
2023-02-14T11:56:51.096Z,87.36
2023-02-14T11:59:30.720Z,84.99
2023-02-14T12:02:05.164Z,82.91
2023-02-14T12:04:46.322Z,84.71
2023-02-14T12:07:29.024Z,86.85
2023-02-14T12:10:29.708Z,87.45
2023-02-14T12:13:03.410Z,86.77
2023-02-14T12:15:37.801Z,86.69
2023-02-14T12:18:43.852Z,86.94
2023-02-14T12:21:34.676Z,87.75
2023-02-14T12:24:13.612Z,87.95
2023-02-14T12:26:49.709Z,85.29
2023-02-14T12:29:26.132Z,85.24
2023-02-14T12:31:55.005Z,86.00
2023-02-14T12:34:23.056Z,86.08
2023-02-14T12:37:08.644Z,86.41
2023-02-14T12:39:43.200Z,86.66
2023-02-14T12:42:23.133Z,86.02
2023-02-14T12:45:00.110Z,83.62
2023-02-14T12:47:40.937Z,82.06
2023-02-14T12:50:28.267Z,81.61
2023-02-14T12:53:19.662Z,82.73
2023-02-14T12:55:56.297Z,83.00
2023-02-14T12:58:38.031Z,82.14
2023-02-14T13:01:39.055Z,81.21
2023-02-14T13:04:24.506Z,80.10
2023-02-14T13:06:58.695Z,78.63
2023-02-14T13:09:39.594Z,78.85
2023-02-14T13:12:21.274Z,78.91
2023-02-14T13:15:02.650Z,78.77
2023-02-14T13:17:38.674Z,79.17
2023-02-14T13:20:28.952Z,77.13
2023-02-14T13:22:58.548Z,77.89
2023-02-14T13:25:33.769Z,79.05
2023-02-14T13:28:04.638Z,77.51
2023-02-14T13:30:34.672Z,76.97
2023-02-14T13:33:07.196Z,77.51
2023-02-14T13:35:36.130Z,77.33
2023-02-14T13:38:08.356Z,77.33
2023-02-14T13:40:38.527Z,76.82
2023-02-14T13:43:09.684Z,76.27
2023-02-14T13:45:53.854Z,77.01
2023-02-14T13:48:29.272Z,76.44
2023-02-14T13:51:00.915Z,76.25
2023-02-14T13:53:33.598Z,76.11
2023-02-14T13:56:06.273Z,77.10
2023-02-14T13:58:35.167Z,77.36
2023-02-14T14:01:32.624Z,77.75
2023-02-14T14:04:02.339Z,79.17
2023-02-14T14:06:30.697Z,79.87
2023-02-14T14:08:58.522Z,78.61
2023-02-14T14:12:02.404Z,77.96
2023-02-14T14:14:36.606Z,76.90
2023-02-14T14:17:25.808Z,75.85
2023-02-14T14:19:54.185Z,75.70
2023-02-14T14:22:24.578Z,75.08
2023-02-14T14:24:55.765Z,75.65
2023-02-14T14:27:27.684Z,75.64
2023-02-14T14:29:59.981Z,76.40
2023-02-14T14:32:53.018Z,76.59
2023-02-14T14:35:26.596Z,75.32
2023-02-14T14:37:55.820Z,75.87
2023-02-14T14:40:26.101Z,77.36
2023-02-14T14:42:56.543Z,77.73
2023-02-14T14:45:27.533Z,78.04
2023-02-14T14:47:58.519Z,78.39
2023-02-14T14:50:32.628Z,78.17
2023-02-14T14:53:05.133Z,77.66
2023-02-14T14:55:37.628Z,76.23
2023-02-14T14:58:09.616Z,75.07
2023-02-14T15:00:38.933Z,74.44
2023-02-14T15:03:16.631Z,73.86
2023-02-14T15:05:47.645Z,74.32
2023-02-14T15:08:17.953Z,75.12
2023-02-14T15:10:50.647Z,74.85
2023-02-14T15:13:40.465Z,75.51
2023-02-14T15:16:09.621Z,76.60
2023-02-14T15:18:39.068Z,78.14
2023-02-14T15:21:08.673Z,77.75
2023-02-14T15:23:38.606Z,77.17
2023-02-14T15:26:08.448Z,77.21
2023-02-14T15:28:38.488Z,77.70
2023-02-14T15:31:08.673Z,78.69
2023-02-14T15:33:37.128Z,80.05
2023-02-14T15:36:09.637Z,79.19
2023-02-14T15:38:42.699Z,79.66
2023-02-14T15:41:37.653Z,81.35
2023-02-14T15:44:07.629Z,81.04
2023-02-14T15:46:41.455Z,80.59
2023-02-14T15:49:11.299Z,80.97
2023-02-14T15:51:40.425Z,81.83
2023-02-14T15:54:10.778Z,82.58
2023-02-14T15:56:45.639Z,83.24
2023-02-14T15:59:18.133Z,83.41
2023-02-14T16:01:52.529Z,83.81
2023-02-14T16:04:28.136Z,84.28
2023-02-14T16:07:17.017Z,84.09
2023-02-14T16:09:44.679Z,83.92
2023-02-14T16:12:32.227Z,83.79
2023-02-14T16:15:10.747Z,84.94
2023-02-14T16:17:38.457Z,85.31
2023-02-14T16:20:24.052Z,85.98
2023-02-14T16:22:52.071Z,85.73
2023-02-14T16:25:21.683Z,85.58
2023-02-14T16:27:52.673Z,85.46
2023-02-14T16:30:22.387Z,85.75
2023-02-14T16:32:53.780Z,86.40
2023-02-14T16:35:22.705Z,86.20
2023-02-14T16:37:51.821Z,86.32
2023-02-14T16:40:24.622Z,86.28
2023-02-14T16:42:53.150Z,86.68
2023-02-14T16:45:22.115Z,86.53
2023-02-14T16:47:50.608Z,86.67
2023-02-14T16:53:22.614Z,87.15
2023-02-14T16:55:56.766Z,87.47
2023-02-14T16:58:33.961Z,87.43
2023-02-14T17:01:03.530Z,88.08
2023-02-14T17:03:33.640Z,88.47
2023-02-14T17:06:02.540Z,89.26
2023-02-14T17:11:25.945Z,89.75
2023-02-14T17:13:57.614Z,89.92
2023-02-14T17:16:31.133Z,89.77
2023-02-14T17:18:59.488Z,90.18
2023-02-14T17:21:27.181Z,89.90
2023-02-14T17:23:59.548Z,90.64
2023-02-14T17:26:27.099Z,90.57
2023-02-14T17:28:55.638Z,91.23
2023-02-14T17:31:25.746Z,91.23
2023-02-14T17:33:57.795Z,91.93
2023-02-14T17:36:25.407Z,92.21
2023-02-14T17:38:55.225Z,92.63
2023-02-14T17:41:26.718Z,92.78
2023-02-14T17:43:55.453Z,92.99
2023-02-14T17:46:23.182Z,93.27
2023-02-14T17:48:50.859Z,93.40
2023-02-14T17:51:20.735Z,93.79
2023-02-14T17:53:50.348Z,93.76
2023-02-14T17:56:20.615Z,93.90
2023-02-14T17:58:50.571Z,93.67
2023-02-14T18:01:20.835Z,93.78
2023-02-14T18:03:48.751Z,94.22
2023-02-14T18:06:16.591Z,94.32
2023-02-14T18:08:49.285Z,94.54
2023-02-14T18:11:19.290Z,95.13
2023-02-14T18:13:47.782Z,95.34
2023-02-14T18:16:18.873Z,95.30
2023-02-14T18:18:46.747Z,95.31
2023-02-14T18:21:18.794Z,95.43
2023-02-14T18:23:48.017Z,95.30
2023-02-14T18:26:17.991Z,95.39
2023-02-14T18:28:46.695Z,95.89
2023-02-14T18:31:16.679Z,96.29
2023-02-14T18:33:45.241Z,96.69
2023-02-14T18:36:14.561Z,96.53
2023-02-14T18:38:43.800Z,96.97
2023-02-14T18:41:15.127Z,97.46
2023-02-14T18:43:43.654Z,97.31
2023-02-14T18:46:13.440Z,97.21
2023-02-14T18:48:41.610Z,97.16
2023-02-14T18:51:11.038Z,97.39
2023-02-14T18:53:39.746Z,97.05
2023-02-14T18:56:10.836Z,97.15
2023-02-14T18:58:41.445Z,96.59
2023-02-14T19:01:10.078Z,96.98
2023-02-14T19:03:37.732Z,97.19
2023-02-14T19:06:05.757Z,97.91
2023-02-14T19:08:34.375Z,98.28
2023-02-14T19:11:02.304Z,98.45
2023-02-14T19:13:32.147Z,98.62
2023-02-14T19:16:01.756Z,98.56
2023-02-14T19:18:30.138Z,98.45
2023-02-14T19:20:57.697Z,98.09
2023-02-14T19:23:25.313Z,97.95
2023-02-14T19:25:53.546Z,98.16
2023-02-14T19:28:21.472Z,98.29
2023-02-14T19:30:49.222Z,97.91
2023-02-14T19:33:18.268Z,97.60
2023-02-14T19:35:46.622Z,98.03
2023-02-14T19:38:14.217Z,98.48
2023-02-14T19:40:44.942Z,99.01
2023-02-14T19:43:12.716Z,99.41
2023-02-14T19:45:40.322Z,99.25
2023-02-14T19:48:07.939Z,99.42
2023-02-14T19:50:39.743Z,99.76
2023-02-14T19:53:07.453Z,99.52
2023-02-14T19:55:35.064Z,99.23
2023-02-14T19:58:03.200Z,99.06
2023-02-14T20:00:31.027Z,98.56
2023-02-14T20:03:01.458Z,98.65
2023-02-14T20:05:29.732Z,98.86
2023-02-14T20:07:58.984Z,99.24
2023-02-14T20:10:26.931Z,99.79
2023-02-14T20:12:54.563Z,100.00
2023-02-14T20:15:22.177Z,100.00
2023-02-14T20:17:50.608Z,100.00
2023-02-14T20:20:18.387Z,100.00
2023-02-14T20:22:46.181Z,100.00
2023-02-14T20:25:15.653Z,100.00
2023-02-14T20:27:43.351Z,100.00
2023-02-14T20:30:12.148Z,100.00
2023-02-14T20:32:39.876Z,100.00
2023-02-14T20:35:07.915Z,100.00
2023-02-14T20:37:36.257Z,100.00
2023-02-14T20:40:04.360Z,100.00
2023-02-14T20:42:33.590Z,100.00
2023-02-14T20:45:01.323Z,100.00
2023-02-14T20:47:29.622Z,100.00
2023-02-14T20:49:57.199Z,100.00
2023-02-14T20:52:26.874Z,100.00
2023-02-14T20:54:55.204Z,100.00
2023-02-14T20:57:23.439Z,100.00
2023-02-14T20:59:52.476Z,100.00
2023-02-14T21:02:20.573Z,100.00
2023-02-14T21:04:48.247Z,100.00
2023-02-14T21:07:15.898Z,100.00
2023-02-14T21:09:43.867Z,100.00
2023-02-14T21:12:14.016Z,100.00
2023-02-14T21:14:41.653Z,100.00
2023-02-14T21:17:11.622Z,100.00
2023-02-14T21:19:39.218Z,100.00
2023-02-14T21:22:07.724Z,100.00
2023-02-14T21:24:36.602Z,100.00
2023-02-14T21:29:57.678Z,100.00
2023-02-14T21:32:33.627Z,100.00
2023-02-14T21:35:01.195Z,100.00
2023-02-14T21:37:28.805Z,100.00
2023-02-14T21:39:56.514Z,100.00
2023-02-14T21:42:26.282Z,100.00
2023-02-14T21:45:11.637Z,100.00
2023-02-14T21:47:40.706Z,100.00
2023-02-14T21:50:28.690Z,100.00
2023-02-14T21:53:00.394Z,100.00
2023-02-14T21:55:28.180Z,100.00
2023-02-14T21:57:56.705Z,100.00
2023-02-14T22:00:24.631Z,100.00
2023-02-14T22:02:53.821Z,100.00
2023-02-14T22:05:21.896Z,100.00
2023-02-14T22:07:50.759Z,100.00
2023-02-14T22:10:18.496Z,100.00
2023-02-14T22:12:46.057Z,100.00
2023-02-14T22:15:13.824Z,100.00
2023-02-14T22:17:41.457Z,100.00
2023-02-14T22:20:12.172Z,100.00
2023-02-14T22:22:40.223Z,100.00
2023-02-14T22:25:08.144Z,100.00
2023-02-14T22:27:39.084Z,100.00
2023-02-14T22:30:08.328Z,100.00
2023-02-14T22:32:36.717Z,100.00
2023-02-14T22:35:04.367Z,100.00
2023-02-14T22:37:33.643Z,100.00
2023-02-14T22:40:01.297Z,100.00
2023-02-14T22:42:28.894Z,100.00
2023-02-14T22:44:56.540Z,100.00
2023-02-14T22:47:25.700Z,100.00
2023-02-14T22:49:53.366Z,100.00
2023-02-14T22:52:20.972Z,100.00
2023-02-14T22:54:52.544Z,100.00
2023-02-14T22:57:20.825Z,100.00
2023-02-14T22:59:48.461Z,100.00
2023-02-14T23:02:16.112Z,100.00
2023-02-14T23:04:45.636Z,100.00
2023-02-14T23:07:15.495Z,100.00
2023-02-14T23:09:43.135Z,100.00
2023-02-14T23:12:32.313Z,100.00
2023-02-14T23:15:17.820Z,100.00
2023-02-14T23:18:02.897Z,100.00
2023-02-14T23:20:48.620Z,100.00
2023-02-14T23:23:16.209Z,100.00
2023-02-14T23:25:44.104Z,100.00
2023-02-14T23:28:13.161Z,100.00
2023-02-14T23:30:40.993Z,100.00
2023-02-14T23:33:08.596Z,100.00
2023-02-14T23:35:37.184Z,100.00
2023-02-14T23:38:04.853Z,100.00
2023-02-14T23:40:53.220Z,100.00
2023-02-14T23:43:22.752Z,100.00
2023-02-14T23:45:50.457Z,100.00
2023-02-14T23:48:18.060Z,100.00
2023-02-14T23:50:45.717Z,100.00
2023-02-14T23:53:15.204Z,100.00
2023-02-14T23:55:42.886Z,100.00
2023-02-14T23:58:10.508Z,100.00
